Cadillac, MI

4:29 AM EST on December 08, 2016 (GMT -0500)
Wexford County | | Change Station
Active Advisory: Winter Storm Warning

Elev 1306 ft 44.28 °N, 85.42 °W | Updated 34 minutes ago

Light Snow
Light Snow
23 °F
Feels Like 11 °F
N
13
Wind Variable Wind from WSW
Gusts 21 mph

Today
High -- | Low -- °F
--% Chance of Precip.
Yesterday
High -- | Low -- °F
Precip. -- in
Pressure 29.89 in
Visibility 10.0 miles
Clouds Overcast 2300 ft
Windchill 11 °F
Dew Point 15 °F
Humidity 73%
Rainfall 0.00 in
Snow Depth Not available.
8:04 AM 5:02 PM
First Quarter, 61% visible
METAR KCAD 080855Z AUTO 25011G18KT 10SM -SN OVC023 M05/M09 A2989 RMK AO2 T10521094
Pressure 29.89 in
Visibility 10.0 miles
Clouds Overcast 2300 ft
Windchill 11 °F
Dew Point 15 °F
Humidity 73%
Rainfall 0.00 in
Snow Depth Not available.
8:04 AM 5:02 PM
First Quarter, 61% visible
METAR KCAD 080855Z AUTO 25011G18KT 10SM -SN OVC023 M05/M09 A2989 RMK AO2 T10521094

10-Day Weather Forecast

Almanac

Astronomy

Dec. 08, 2016 Rise Set
Actual Time
Civil Twilight
Nautical Twilight
Astronomical Twilight
Moon
Length of Visible Light
Length of Day
Tomorrow will be .
, % of the Moon is Illuminated

Today's Extremes

State Highs State Lows

Community

WunderPhotos

Upload Photos

1,956,259 photos uploaded!

WunderBlog® & News

Nearby

Air Quality

  Air Quality AQ Index Pollutant
Not available.

Snow Depth

Station Depth Elevation

Earthquake Activity

City Distance Mag. Time & Date
Minimum magnitude displayed is 2.5.

Coastal Water Temperatures

Place Temperature

Stations

Nearby Weather Stations

Station Location Temp. Windchill Dew Point Humidity Wind Precip. Elev Updated Type
                   

Watches & Warnings

Winter Storm Warning
Issued: 2:51 AM EST Dec. 8, 2016 – National Weather Service

... Winter Storm Warning remains in effect until 3 PM EST Friday...

* snow showers will increase in coverage and intensity today and
will through tonight and Friday.

* The heaviest snowfall rates will occur this afternoon and
tonight.

* Total snow accumulations of 8 to 14 inches are expected.

* Areas of blowing snow is also expected... especially today.

* Look for significant reductions in visibility at times.

* Plan on difficult driving conditions... including during the
evening commute.

Precautionary/preparedness actions...

A Winter Storm Warning for snow means severe winter weather
conditions are expected. If you must travel... keep an extra
flashlight... food... and water in your vehicle in case of an
emergency. For the latest Road conditions... go to the mdot
website at Michigan.Gov.